Terminal Aerodrome Forecast
Issued by NWS

Home | Current Version | Previous Version | Text Only | Print | Product List | Glossary On
Versions: 1 2 3 4 5 6 7 8 9 10 11 12
266
FTUS42 TJSJ 201132
TAFJSJ
TAF
TJSJ 201132Z 2012/2112 11010KT P6SM FEW025 SCT040
     FM201400 08018G28KT P6SM VCSH FEW025 SCT050
     FM202300 11010KT P6SM SCT025=

USA.gov is the U.S. government's official web portal to all federal, state and local government web resources and services.